Time;durP1;ratioP1;P1;durP2;ratioP2;P2;SDS_P1;SDS_P2;PMS_P1;PMS_P2;Temp;Humidity;BMP_temperature;BMP_pressure;BME280_temperature;BME280_humidity;BME280_pressure;Samples;Min_cycle;Max_cycle;Signal;HPM_P1;HPM_P2
2023/05/13 00:02:41;;;;;;;11.30;3.80;;;;;;;13.93;45.69;99436.23;223680;181;147583;-59
2023/05/13 00:07:44;;;;;;;7.40;3.40;;;;;;;13.84;45.48;99441.69;223757;181;139956;-62
2023/05/13 00:12:48;;;;;;;7.30;3.70;;;;;;;13.74;46.42;99446.84;223886;181;137085;-62
2023/05/13 00:17:51;;;;;;;6.30;3.70;;;;;;;13.63;46.58;99447.55;223933;182;147464;-63
2023/05/13 00:22:54;;;;;;;6.70;3.60;;;;;;;13.55;46.69;99442.58;223865;182;138248;-62
2023/05/13 00:27:57;;;;;;;5.60;3.70;;;;;;;13.50;46.90;99446.14;223950;182;136992;-63
2023/05/13 00:33:00;;;;;;;8.40;4.00;;;;;;;13.47;46.82;99448.06;223972;181;146933;-63
2023/05/13 00:38:04;;;;;;;5.90;3.10;;;;;;;13.45;46.93;99450.89;223962;181;138788;-64
2023/05/13 00:43:07;;;;;;;6.30;3.80;;;;;;;13.40;47.16;99456.22;223934;182;137571;-62
2023/05/13 00:48:10;;;;;;;6.40;4.20;;;;;;;13.35;47.39;99459.30;223849;181;147615;-62
2023/05/13 00:53:15;;;;;;;7.70;4.10;;;;;;;13.28;47.56;99461.89;223866;182;138323;-63
2023/05/13 00:58:18;;;;;;;8.70;4.10;;;;;;;13.23;47.79;99466.96;223972;182;137487;-63
2023/05/13 01:03:33;;;;;;;7.70;3.90;;;;;;;13.17;47.98;99468.95;223837;182;147635;-62
2023/05/13 01:08:50;;;;;;;5.50;3.70;;;;;;;13.09;48.38;99470.42;223830;182;138274;-62
2023/05/13 01:14:18;;;;;;;8.00;4.20;;;;;;;12.99;48.59;99479.03;223827;183;136732;-61
2023/05/13 01:20:02;;;;;;;8.90;4.10;;;;;;;12.95;48.63;99486.64;223846;181;147595;-64
2023/05/13 01:25:05;;;;;;;7.40;4.50;;;;;;;12.90;48.98;99488.86;223932;182;138777;-62
2023/05/13 01:30:10;;;;;;;8.50;4.30;;;;;;;12.82;49.18;99491.38;223942;181;138046;-64
2023/05/13 01:35:15;;;;;;;6.30;3.90;;;;;;;12.76;49.29;99493.33;223953;181;147796;-63
2023/05/13 01:40:20;;;;;;;6.30;4.10;;;;;;;12.72;49.40;99492.71;223910;181;139248;-63
2023/05/13 01:45:37;;;;;;;7.10;4.00;;;;;;;12.69;49.46;99494.50;223918;182;137128;-62
2023/05/13 01:50:40;;;;;;;10.30;4.40;;;;;;;12.68;49.57;99497.41;223922;182;146994;-61
2023/05/13 01:55:43;;;;;;;7.90;4.40;;;;;;;12.67;49.62;99499.98;223888;182;138964;-62
2023/05/13 02:00:46;;;;;;;8.60;4.10;;;;;;;12.65;49.72;99499.57;223920;182;137653;-63
2023/05/13 02:05:49;;;;;;;7.90;4.10;;;;;;;12.64;49.93;99498.02;223927;182;147503;-62
2023/05/13 02:10:59;;;;;;;7.60;4.10;;;;;;;12.63;50.03;99503.48;224026;182;138468;-62
2023/05/13 02:16:04;;;;;;;6.80;4.40;;;;;;;12.59;50.15;99502.64;223904;182;138541;-64
2023/05/13 02:21:07;;;;;;;8.30;4.50;;;;;;;12.51;50.28;99503.27;222937;182;146901;-68
2023/05/13 02:26:11;;;;;;;7.20;4.40;;;;;;;12.45;50.54;99502.94;221132;182;139423;-64
2023/05/13 02:31:14;;;;;;;7.50;4.20;;;;;;;12.41;50.86;99505.14;222858;183;137114;-63
2023/05/13 02:36:17;;;;;;;9.50;4.80;;;;;;;12.41;51.11;99505.04;223914;182;147391;-61
2023/05/13 02:41:21;;;;;;;7.40;4.20;;;;;;;12.42;51.25;99502.46;223937;181;138456;-63
2023/05/13 02:46:25;;;;;;;7.60;4.00;;;;;;;12.43;51.40;99502.17;223915;182;136957;-62
2023/05/13 02:51:29;;;;;;;7.00;4.20;;;;;;;12.46;51.53;99503.45;223864;182;147565;-61
2023/05/13 02:56:33;;;;;;;9.50;4.40;;;;;;;12.48;51.70;99508.84;223958;182;138140;-63
2023/05/13 03:01:36;;;;;;;7.10;3.90;;;;;;;12.50;51.84;99513.34;223909;183;137702;-62
2023/05/13 03:06:39;;;;;;;6.40;3.90;;;;;;;12.49;52.10;99512.86;223827;181;147177;-62
2023/05/13 03:11:43;;;;;;;8.50;3.90;;;;;;;12.50;52.33;99517.21;222172;181;138186;-63
2023/05/13 03:16:46;;;;;;;5.20;3.90;;;;;;;12.54;52.41;99522.32;223258;182;138307;-62
2023/05/13 03:21:49;;;;;;;6.20;4.20;;;;;;;12.59;52.46;99526.29;223894;181;147681;-63
2023/05/13 03:26:54;;;;;;;8.80;4.40;;;;;;;12.62;52.54;99528.60;223915;181;139486;-64
2023/05/13 03:31:58;;;;;;;6.10;4.00;;;;;;;12.61;52.70;99527.08;223910;182;137933;-63
2023/05/13 03:37:01;;;;;;;7.80;3.90;;;;;;;12.68;52.52;99533.73;223885;181;147213;-63
2023/05/13 03:42:05;;;;;;;7.50;4.10;;;;;;;12.75;52.42;99541.16;223979;182;138274;-62
2023/05/13 03:47:08;;;;;;;5.20;3.90;;;;;;;12.78;52.59;99538.77;223943;182;137419;-63
2023/05/13 03:52:13;;;;;;;7.80;4.30;;;;;;;12.88;52.61;99543.13;223932;182;147117;-62
2023/05/13 03:57:16;;;;;;;6.60;4.40;;;;;;;13.00;52.44;99546.82;223899;181;138670;-62
2023/05/13 04:02:20;;;;;;;6.80;3.80;;;;;;;13.14;52.48;99552.55;223904;182;137864;-62
2023/05/13 04:07:23;;;;;;;7.20;3.70;;;;;;;13.25;52.48;99557.19;223828;182;148009;-63
2023/05/13 04:12:27;;;;;;;8.70;3.40;;;;;;;13.32;52.56;99564.46;221932;182;139696;-62
2023/05/13 04:17:30;;;;;;;7.60;4.00;;;;;;;13.39;52.65;99563.59;221175;181;137440;-64
2023/05/13 04:22:34;;;;;;;5.60;3.50;;;;;;;13.43;52.54;99566.94;223959;182;148241;-63
2023/05/13 04:27:37;;;;;;;9.30;4.10;;;;;;;13.43;52.31;99569.22;223931;181;138273;-63
2023/05/13 04:32:46;;;;;;;4.90;3.60;;;;;;;13.47;52.38;99571.64;223969;181;138179;-61
2023/05/13 04:37:50;;;;;;;7.60;3.80;;;;;;;13.53;52.43;99577.88;223875;179;146914;-62
2023/05/13 04:42:54;;;;;;;8.10;3.80;;;;;;;13.57;52.40;99580.64;223888;181;138089;-61
2023/05/13 04:48:06;;;;;;;8.20;3.50;;;;;;;13.59;52.53;99582.60;223941;182;137049;-63
2023/05/13 04:53:10;;;;;;;4.50;3.50;;;;;;;13.66;52.39;99582.69;223956;181;147162;-66
2023/05/13 04:58:13;;;;;;;5.80;3.60;;;;;;;13.76;52.31;99585.27;223926;182;138252;-62
2023/05/13 05:03:16;;;;;;;19.10;10.50;;;;;;;13.84;52.33;99584.86;223755;181;137587;-61
2023/05/13 05:08:20;;;;;;;83.40;61.80;;;;;;;13.95;52.23;99588.45;223875;182;148763;-60
2023/05/13 05:13:24;;;;;;;141.70;116.80;;;;;;;14.06;52.16;99587.16;223793;183;139235;-61
2023/05/13 05:18:28;;;;;;;11.10;7.40;;;;;;;14.18;51.95;99590.09;223949;181;138255;-61
2023/05/13 05:23:31;;;;;;;8.80;3.70;;;;;;;14.23;51.57;99594.78;223890;181;147583;-61
2023/05/13 05:28:35;;;;;;;5.50;3.80;;;;;;;14.27;51.80;99600.06;223804;182;139081;-61
2023/05/13 05:33:39;;;;;;;6.20;3.70;;;;;;;14.32;51.70;99598.59;223917;182;138099;-62
2023/05/13 05:38:42;;;;;;;7.70;4.00;;;;;;;14.38;51.45;99605.71;223903;182;147715;-61
2023/05/13 05:43:46;;;;;;;7.40;4.00;;;;;;;14.45;51.41;99607.52;223877;181;138203;-61
2023/05/13 05:48:50;;;;;;;10.10;4.20;;;;;;;14.46;51.32;99606.04;223895;181;138745;-62
2023/05/13 05:53:53;;;;;;;11.10;4.70;;;;;;;14.47;51.55;99609.92;223890;182;147172;-61
2023/05/13 05:58:56;;;;;;;194.60;143.90;;;;;;;14.56;51.58;99607.52;223824;182;141417;-61
2023/05/13 06:04:02;;;;;;;28.00;19.10;;;;;;;14.65;51.39;99610.85;223867;182;139210;-60
2023/05/13 06:09:05;;;;;;;10.00;6.50;;;;;;;14.71;51.47;99609.52;223862;181;147084;-59
2023/05/13 06:14:08;;;;;;;9.70;7.10;;;;;;;14.80;51.10;99617.42;223864;181;139535;-61
2023/05/13 06:19:12;;;;;;;432.90;336.00;;;;;;;14.87;51.00;99617.66;223688;181;137693;-59
2023/05/13 06:24:16;;;;;;;17.90;10.00;;;;;;;14.94;50.92;99616.06;223852;181;147902;-61
2023/05/13 06:29:19;;;;;;;78.90;55.30;;;;;;;15.03;50.73;99613.65;223855;182;139579;-64
2023/05/13 06:34:22;;;;;;;8.50;5.20;;;;;;;15.14;50.55;99615.79;223942;181;138444;-62
2023/05/13 06:39:25;;;;;;;6.00;3.50;;;;;;;15.22;50.43;99619.80;223871;181;146989;-64
2023/05/13 06:44:30;;;;;;;6.90;3.60;;;;;;;15.30;49.53;99615.98;223895;182;138378;-63
2023/05/13 06:49:33;;;;;;;6.00;2.50;;;;;;;15.39;48.92;99616.65;223930;182;138370;-65
2023/05/13 06:54:36;;;;;;;6.20;2.90;;;;;;;15.49;48.28;99620.16;223910;181;148970;-64
2023/05/13 06:59:39;;;;;;;4.60;3.00;;;;;;;15.58;48.55;99618.65;221827;182;138413;-64
2023/05/13 07:04:42;;;;;;;9.40;3.70;;;;;;;15.65;48.64;99617.94;221056;182;136998;-65
2023/05/13 07:09:46;;;;;;;5.20;3.40;;;;;;;15.69;48.29;99620.20;222149;181;147728;-64
2023/05/13 07:14:49;;;;;;;4.50;2.90;;;;;;;15.72;47.83;99619.59;223876;181;138207;-63
2023/05/13 07:19:52;;;;;;;4.70;3.20;;;;;;;15.79;47.83;99618.22;223959;181;138490;-65
2023/05/13 07:24:56;;;;;;;7.10;3.00;;;;;;;15.82;47.93;99616.89;223923;182;147171;-65
2023/05/13 07:29:59;;;;;;;4.10;2.80;;;;;;;15.88;47.48;99615.92;223934;182;138447;-64
2023/05/13 07:35:03;;;;;;;64.10;48.60;;;;;;;15.93;47.84;99616.80;223899;181;137771;-64
2023/05/13 07:40:06;;;;;;;9.30;5.70;;;;;;;16.08;48.03;99617.40;223845;181;147056;-65
2023/05/13 07:45:10;;;;;;;5.10;3.60;;;;;;;16.18;47.83;99617.73;223946;182;138631;-65
2023/05/13 07:50:13;;;;;;;11.70;3.70;;;;;;;16.19;47.34;99626.46;223943;182;137899;-64
2023/05/13 07:55:16;;;;;;;4.20;3.30;;;;;;;16.21;47.06;99630.41;223970;182;147168;-58
2023/05/13 08:00:19;;;;;;;5.20;3.30;;;;;;;16.33;46.37;99624.30;223925;182;139737;-62
2023/05/13 08:05:22;;;;;;;6.60;2.60;;;;;;;16.52;46.55;99621.63;223833;182;137764;-62
2023/05/13 08:10:26;;;;;;;3.00;2.60;;;;;;;16.60;46.18;99617.41;223771;181;147137;-62
2023/05/13 08:15:29;;;;;;;7.30;2.90;;;;;;;16.69;45.68;99620.27;223866;181;139355;-62
2023/05/13 08:20:32;;;;;;;4.40;2.90;;;;;;;16.72;45.26;99617.55;223902;182;137457;-62
2023/05/13 08:25:35;;;;;;;5.10;3.30;;;;;;;16.75;45.39;99614.42;223912;181;147615;-62
2023/05/13 08:30:42;;;;;;;58.80;46.30;;;;;;;17.25;46.34;99620.31;223900;182;139167;-64
2023/05/13 08:35:46;;;;;;;9.40;5.30;;;;;;;17.56;43.02;99620.20;223854;182;137871;-62
2023/05/13 08:40:49;;;;;;;7.30;2.60;;;;;;;17.61;42.80;99612.94;223863;181;147100;-63
2023/05/13 08:45:53;;;;;;;3.60;2.20;;;;;;;17.64;41.39;99610.02;223920;182;138887;-63
2023/05/13 08:50:57;;;;;;;5.10;3.60;;;;;;;17.64;42.32;99599.77;223882;182;137026;-62
2023/05/13 08:56:01;;;;;;;5.00;3.00;;;;;;;17.99;42.61;99595.87;223884;182;148307;-62
2023/05/13 09:01:05;;;;;;;5.60;2.80;;;;;;;18.20;42.07;99593.55;223821;182;138516;-63
2023/05/13 09:06:09;;;;;;;4.80;2.40;;;;;;;18.35;42.01;99590.79;223869;182;137140;-62
2023/05/13 09:11:12;;;;;;;4.80;2.50;;;;;;;18.44;41.64;99592.70;223901;181;147062;-65
2023/05/13 09:16:15;;;;;;;16.00;11.80;;;;;;;18.71;42.40;99589.00;223776;182;140051;-64
2023/05/13 09:21:23;;;;;;;8.70;3.00;;;;;;;18.73;41.18;99585.53;223932;182;138542;-62
2023/05/13 09:26:28;;;;;;;8.20;4.00;;;;;;;18.74;41.06;99587.15;223849;182;147656;-62
2023/05/13 09:31:32;;;;;;;79.10;40.40;;;;;;;18.85;42.76;99586.34;223872;182;138374;-62
2023/05/13 09:36:35;;;;;;;8.20;3.10;;;;;;;18.97;41.63;99575.36;223883;182;138784;-64
2023/05/13 09:41:38;;;;;;;32.40;9.90;;;;;;;19.10;41.45;99565.96;223944;181;147139;-65
2023/05/13 09:46:42;;;;;;;18.70;6.90;;;;;;;19.26;41.00;99570.80;223835;181;138446;-65
2023/05/13 09:51:45;;;;;;;8.90;4.10;;;;;;;19.42;39.13;99570.11;223902;182;138536;-63
2023/05/13 09:56:48;;;;;;;9.80;3.80;;;;;;;19.52;39.83;99561.06;223890;181;147523;-62
2023/05/13 10:01:54;;;;;;;28.30;25.10;;;;;;;19.55;40.06;99559.89;223883;181;139722;-63
2023/05/13 10:06:57;;;;;;;7.40;3.20;;;;;;;19.52;39.92;99553.58;223945;182;137495;-58
2023/05/13 10:12:04;;;;;;;10.10;4.10;;;;;;;19.59;38.10;99544.54;223883;182;148601;-60
2023/05/13 10:17:08;;;;;;;20.10;14.00;;;;;;;19.69;38.30;99536.20;223887;182;139223;-61
2023/05/13 10:22:13;;;;;;;18.30;7.60;;;;;;;19.68;37.82;99531.89;223908;182;137545;-61
2023/05/13 10:27:17;;;;;;;5.20;3.40;;;;;;;19.55;37.48;99538.17;223879;181;147688;-60
2023/05/13 10:32:25;;;;;;;5.00;2.40;;;;;;;19.48;37.48;99528.21;223903;182;139362;-59
2023/05/13 10:37:54;;;;;;;2.90;2.40;;;;;;;19.43;36.86;99530.66;223914;182;137142;-60
2023/05/13 10:43:21;;;;;;;9.30;5.50;;;;;;;19.36;36.91;99526.04;223989;182;148317;-60
2023/05/13 10:48:24;;;;;;;3.50;2.40;;;;;;;19.34;37.14;99530.84;223899;182;138393;-59
2023/05/13 10:53:31;;;;;;;5.10;2.60;;;;;;;19.36;37.62;99527.45;223889;182;138208;-60
2023/05/13 10:58:38;;;;;;;4.30;2.50;;;;;;;19.39;37.10;99522.17;223908;181;147137;-60
2023/05/13 11:03:41;;;;;;;4.30;3.40;;;;;;;19.40;36.78;99519.34;223851;181;138442;-59
2023/05/13 11:08:49;;;;;;;10.00;2.50;;;;;;;19.41;37.85;99514.80;223754;182;137644;-59
2023/05/13 11:14:15;;;;;;;7.20;2.70;;;;;;;19.37;37.49;99516.90;223827;182;147141;-59
2023/05/13 11:19:36;;;;;;;6.20;2.80;;;;;;;19.33;37.19;99514.61;223874;182;138271;-59
2023/05/13 11:24:39;;;;;;;5.70;2.30;;;;;;;19.29;36.20;99505.41;223831;181;137189;-61
2023/05/13 11:29:54;;;;;;;5.00;2.30;;;;;;;19.24;36.15;99505.84;223793;181;147958;-60
2023/05/13 11:34:58;;;;;;;10.30;3.30;;;;;;;19.28;36.05;99504.26;223852;181;138853;-60
2023/05/13 11:40:02;;;;;;;4.40;2.20;;;;;;;19.31;35.66;99509.95;223848;181;137192;-60
2023/05/13 11:45:06;;;;;;;6.40;1.90;;;;;;;19.38;34.15;99503.48;223849;181;147127;-60
2023/05/13 11:50:29;;;;;;;7.70;2.10;;;;;;;19.34;33.99;99513.77;223829;182;138532;-62
2023/05/13 11:55:35;;;;;;;9.20;2.20;;;;;;;19.29;34.32;99514.27;223875;182;137933;-61
2023/05/13 12:00:38;;;;;;;6.50;2.20;;;;;;;19.19;35.11;99519.27;223750;182;146894;-61
2023/05/13 12:05:43;;;;;;;3.60;1.70;;;;;;;19.06;35.37;99523.83;223834;181;138399;-61
2023/05/13 12:10:46;;;;;;;6.00;1.60;;;;;;;18.95;35.37;99528.42;223871;182;137422;-59
2023/05/13 12:15:49;;;;;;;5.10;2.20;;;;;;;18.85;35.68;99528.61;223842;181;147723;-61
2023/05/13 12:20:52;;;;;;;5.80;2.10;;;;;;;18.78;35.60;99526.54;223744;182;138672;-60
2023/05/13 12:25:56;;;;;;;8.20;2.50;;;;;;;18.70;35.54;99526.00;223855;181;136977;-60
2023/05/13 12:31:06;;;;;;;4.10;2.10;;;;;;;18.64;36.31;99528.98;223849;181;147689;-59
2023/05/13 12:36:22;;;;;;;7.20;1.90;;;;;;;18.61;36.47;99535.75;223797;182;138320;-60
2023/05/13 12:41:28;;;;;;;3.80;2.10;;;;;;;18.53;36.89;99533.94;223824;182;137358;-60
2023/05/13 12:46:31;;;;;;;4.80;2.50;;;;;;;18.52;37.89;99536.34;223828;181;147091;-60
2023/05/13 12:51:35;;;;;;;17.40;12.80;;;;;;;18.67;38.12;99533.05;223758;181;138067;-59
2023/05/13 12:56:41;;;;;;;25.60;20.80;;;;;;;18.80;37.05;99532.10;223842;181;137343;-59
2023/05/13 13:01:46;;;;;;;3.10;2.00;;;;;;;18.81;36.83;99531.98;223883;181;147673;-60
2023/05/13 13:06:50;;;;;;;4.90;2.50;;;;;;;18.88;36.91;99528.31;223759;181;138646;-60
2023/05/13 13:11:53;;;;;;;7.60;1.80;;;;;;;18.92;36.61;99532.81;223728;182;138269;-59
2023/05/13 13:16:56;;;;;;;2.80;1.70;;;;;;;18.90;36.25;99530.35;223882;182;147690;-61
2023/05/13 13:21:59;;;;;;;5.10;2.10;;;;;;;18.94;35.88;99529.30;223877;182;138417;-60
2023/05/13 13:27:02;;;;;;;6.00;2.10;;;;;;;18.93;35.23;99532.09;223919;181;137914;-61
2023/05/13 13:32:06;;;;;;;11.20;2.50;;;;;;;18.85;34.50;99532.86;223893;181;147486;-60
2023/05/13 13:37:09;;;;;;;4.20;1.70;;;;;;;18.82;34.69;99538.25;223762;181;139788;-60
2023/05/13 13:42:12;;;;;;;3.50;1.90;;;;;;;18.98;35.32;99531.39;223858;182;137542;-60
2023/05/13 13:47:16;;;;;;;4.80;2.40;;;;;;;19.07;35.40;99534.20;223758;181;147425;-60
2023/05/13 13:52:21;;;;;;;3.30;2.40;;;;;;;19.04;35.86;99537.31;223827;182;139062;-62
2023/05/13 13:57:24;;;;;;;3.50;1.80;;;;;;;19.04;36.48;99542.36;223877;182;138296;-60
2023/05/13 14:02:27;;;;;;;3.30;1.80;;;;;;;19.02;36.47;99541.49;223872;181;146765;-60
2023/05/13 14:07:30;;;;;;;26.50;16.50;;;;;;;18.97;36.97;99544.83;223768;182;138932;-61
2023/05/13 14:12:35;;;;;;;4.20;1.90;;;;;;;19.04;36.94;99542.77;223814;181;137552;-61
2023/05/13 14:17:38;;;;;;;2.60;2.00;;;;;;;19.47;36.13;99542.59;223955;182;146921;-61
2023/05/13 14:22:42;;;;;;;4.80;1.60;;;;;;;19.90;35.86;99540.02;223885;182;140427;-60
2023/05/13 14:27:45;;;;;;;3.10;1.70;;;;;;;19.97;34.73;99540.92;223843;182;136960;-61
2023/05/13 14:32:48;;;;;;;2.40;1.30;;;;;;;20.01;34.84;99540.02;223912;182;147277;-60
2023/05/13 14:37:51;;;;;;;2.40;1.70;;;;;;;20.08;34.49;99542.80;223769;182;140322;-60
2023/05/13 14:42:54;;;;;;;3.00;1.40;;;;;;;20.03;33.79;99540.90;223906;181;137487;-61
2023/05/13 14:47:57;;;;;;;6.50;1.70;;;;;;;19.91;33.62;99549.80;223917;182;147061;-61
2023/05/13 14:53:00;;;;;;;3.60;1.50;;;;;;;19.66;33.45;99546.85;223862;182;140916;-63
2023/05/13 14:58:06;;;;;;;1.90;1.70;;;;;;;19.49;34.07;99546.06;223935;181;137016;-61
2023/05/13 15:03:10;;;;;;;8.10;2.50;;;;;;;19.39;34.15;99537.41;223800;182;147552;-62
2023/05/13 15:08:14;;;;;;;4.20;2.10;;;;;;;19.34;34.14;99538.58;223884;182;138182;-62
2023/05/13 15:13:17;;;;;;;3.10;1.60;;;;;;;19.22;33.76;99535.52;223841;182;137148;-61
2023/05/13 15:18:20;;;;;;;4.40;1.70;;;;;;;19.25;34.26;99538.71;223885;182;147180;-61
2023/05/13 15:23:23;;;;;;;3.60;1.50;;;;;;;19.28;34.03;99538.98;223840;181;139724;-61
2023/05/13 15:28:27;;;;;;;3.30;1.60;;;;;;;19.14;33.58;99532.64;223866;181;137114;-61
2023/05/13 15:33:31;;;;;;;3.10;1.40;;;;;;;19.01;33.98;99530.45;223891;182;147870;-62
2023/05/13 15:38:36;;;;;;;6.40;1.80;;;;;;;18.95;33.25;99532.25;223936;181;138965;-61
2023/05/13 15:43:38;;;;;;;3.90;2.00;;;;;;;18.92;34.30;99531.99;223814;181;136887;-61
2023/05/13 15:48:42;;;;;;;3.40;1.50;;;;;;;18.86;34.47;99529.39;223844;182;147502;-62
2023/05/13 15:53:45;;;;;;;46.90;31.70;;;;;;;18.89;35.18;99530.23;223809;181;138963;-62
2023/05/13 15:58:48;;;;;;;4.60;2.30;;;;;;;18.98;35.70;99531.41;223943;180;137457;-61
2023/05/13 16:03:51;;;;;;;4.70;1.80;;;;;;;18.93;34.68;99530.60;223838;181;146887;-61
2023/05/13 16:08:54;;;;;;;4.00;2.30;;;;;;;18.78;34.82;99529.40;223791;182;138674;-61
2023/05/13 16:13:58;;;;;;;4.00;1.70;;;;;;;18.70;35.38;99523.48;223886;181;136579;-61
2023/05/13 16:19:02;;;;;;;4.30;1.90;;;;;;;18.63;35.26;99517.95;223680;182;147094;-62
2023/05/13 16:24:05;;;;;;;3.70;1.70;;;;;;;18.56;35.72;99521.02;223831;181;140130;-61
2023/05/13 16:29:09;;;;;;;4.90;2.00;;;;;;;18.53;36.24;99520.45;223853;182;138256;-61
2023/05/13 16:34:12;;;;;;;5.70;2.10;;;;;;;18.49;35.92;99520.77;223873;181;147849;-61
2023/05/13 16:39:15;;;;;;;3.00;1.90;;;;;;;18.45;35.98;99521.89;223906;182;138508;-61
2023/05/13 16:44:18;;;;;;;20.90;13.10;;;;;;;18.39;36.16;99520.86;223880;182;137046;-61
2023/05/13 16:49:21;;;;;;;19.10;14.10;;;;;;;18.34;35.53;99515.63;223831;181;147049;-60
2023/05/13 16:54:24;;;;;;;8.40;6.70;;;;;;;18.34;36.64;99514.14;223831;182;138245;-61
2023/05/13 16:59:27;;;;;;;9.10;5.40;;;;;;;18.41;36.70;99512.85;223899;181;137217;-61
2023/05/13 17:04:30;;;;;;;3.40;1.80;;;;;;;18.39;36.65;99506.05;223853;181;147595;-61
2023/05/13 17:09:33;;;;;;;5.30;3.80;;;;;;;18.35;36.68;99506.23;223842;182;138423;-60
2023/05/13 17:14:36;;;;;;;5.80;2.60;;;;;;;18.36;36.82;99503.44;223822;181;137161;-60
2023/05/13 17:19:40;;;;;;;5.20;1.90;;;;;;;18.34;36.92;99503.96;223911;181;147488;-60
2023/05/13 17:24:43;;;;;;;4.00;1.90;;;;;;;18.27;36.77;99505.84;223776;181;138861;-61
2023/05/13 17:29:46;;;;;;;5.60;3.80;;;;;;;18.24;36.94;99506.42;223840;181;137039;-62
2023/05/13 17:34:49;;;;;;;7.20;4.10;;;;;;;18.23;37.61;99502.07;223252;182;147111;-60
2023/05/13 17:39:53;;;;;;;6.30;3.60;;;;;;;18.22;37.77;99498.15;222632;182;139592;-59
2023/05/13 17:44:56;;;;;;;5.10;2.50;;;;;;;18.16;37.71;99501.55;223857;181;137476;-60
2023/05/13 17:49:59;;;;;;;5.20;2.50;;;;;;;18.14;38.44;99504.07;223860;181;147671;-59
2023/05/13 17:55:04;;;;;;;3.70;2.20;;;;;;;18.11;38.47;99502.54;223857;182;139306;-60
2023/05/13 18:00:07;;;;;;;4.10;2.40;;;;;;;18.09;38.72;99514.69;223851;182;136822;-60
2023/05/13 18:05:10;;;;;;;4.60;3.10;;;;;;;18.05;39.12;99512.56;223856;182;147205;-59
2023/05/13 18:10:14;;;;;;;4.30;2.60;;;;;;;18.06;39.48;99517.84;223914;182;138334;-59
2023/05/13 18:15:18;;;;;;;6.60;2.20;;;;;;;18.01;39.30;99522.79;223851;182;137997;-60
2023/05/13 18:20:21;;;;;;;4.60;2.60;;;;;;;17.93;39.22;99529.37;223844;182;147699;-60
2023/05/13 18:25:24;;;;;;;4.70;2.20;;;;;;;17.92;39.40;99529.80;223795;181;138407;-60
2023/05/13 18:30:27;;;;;;;5.10;2.70;;;;;;;17.93;39.40;99529.55;223872;181;137096;-60
2023/05/13 18:35:33;;;;;;;3.40;2.10;;;;;;;17.78;39.66;99532.46;223830;181;147207;-60
2023/05/13 18:40:36;;;;;;;7.20;2.90;;;;;;;17.81;39.38;99544.02;223865;182;141680;-60
2023/05/13 18:45:39;;;;;;;43.20;33.60;;;;;;;17.83;39.61;99545.45;223895;182;136516;-60
2023/05/13 18:50:42;;;;;;;15.20;9.60;;;;;;;17.86;39.43;99552.37;223826;182;147104;-61
2023/05/13 18:55:45;;;;;;;16.10;9.50;;;;;;;17.82;39.49;99554.36;223781;181;138247;-61
2023/05/13 19:00:48;;;;;;;15.40;9.00;;;;;;;17.85;39.75;99555.38;223911;181;137630;-61
2023/05/13 19:05:52;;;;;;;15.20;9.00;;;;;;;17.85;39.80;99555.53;223874;181;146904;-62
2023/05/13 19:10:55;;;;;;;14.70;7.10;;;;;;;17.89;39.83;99562.92;223863;181;138570;-61
2023/05/13 19:15:59;;;;;;;10.40;5.80;;;;;;;17.86;39.99;99564.95;223813;182;137310;-61
2023/05/13 19:21:02;;;;;;;9.90;5.40;;;;;;;17.84;40.02;99566.77;223912;183;147950;-62
2023/05/13 19:26:06;;;;;;;8.60;4.90;;;;;;;17.69;39.75;99570.15;223884;182;139290;-62
2023/05/13 19:31:09;;;;;;;13.40;5.60;;;;;;;17.40;40.29;99573.77;223801;181;140197;-61
2023/05/13 19:36:12;;;;;;;172.50;147.20;;;;;;;17.45;42.12;99574.75;223918;182;146932;-62
2023/05/13 19:41:15;;;;;;;16.40;7.60;;;;;;;17.57;41.19;99575.95;223937;181;141255;-63
2023/05/13 19:46:18;;;;;;;14.80;6.00;;;;;;;17.01;41.69;99580.65;223882;182;137177;-64
2023/05/13 19:51:22;;;;;;;11.50;6.30;;;;;;;16.57;42.41;99585.73;223878;181;147393;-65
2023/05/13 19:56:25;;;;;;;14.70;5.80;;;;;;;16.24;43.38;99588.84;223793;181;138112;-64
2023/05/13 20:01:30;;;;;;;10.20;6.70;;;;;;;15.97;44.31;99589.15;223946;182;137550;-64
2023/05/13 20:06:33;;;;;;;15.60;6.60;;;;;;;15.71;44.94;99589.96;223873;182;147106;-63
2023/05/13 20:11:36;;;;;;;12.30;6.60;;;;;;;15.50;45.96;99590.95;223846;181;138925;-64
2023/05/13 20:16:40;;;;;;;12.10;6.10;;;;;;;15.32;46.64;99589.60;223944;182;137549;-62
2023/05/13 20:21:43;;;;;;;9.30;5.20;;;;;;;15.17;47.16;99583.71;223933;182;147168;-62
2023/05/13 20:26:46;;;;;;;10.50;5.60;;;;;;;15.04;47.52;99584.63;223840;182;138465;-66
2023/05/13 20:31:49;;;;;;;11.40;6.40;;;;;;;14.94;47.86;99581.45;223945;182;137529;-67
2023/05/13 20:36:52;;;;;;;9.30;5.70;;;;;;;14.82;48.47;99572.64;223912;182;147726;-67
2023/05/13 20:41:55;;;;;;;13.50;6.90;;;;;;;14.72;49.21;99574.08;223931;182;139019;-67
2023/05/13 20:46:58;;;;;;;16.60;7.30;;;;;;;14.62;49.20;99567.80;223897;181;137169;-68
2023/05/13 20:57:20;;;;;;;15.30;9.30;;;;;;;14.51;49.37;99561.41;219891;193;665441;-67
2023/05/13 21:02:23;;;;;;;14.20;8.80;;;;;;;14.39;49.57;99562.39;221215;184;136827;-64
2023/05/13 21:07:26;;;;;;;14.10;9.80;;;;;;;14.30;49.96;99560.31;221230;184;143946;-65
2023/05/13 21:12:29;;;;;;;13.90;9.20;;;;;;;14.21;50.13;99561.19;221228;184;140394;-63
2023/05/13 21:17:32;;;;;;;14.10;9.60;;;;;;;14.08;50.56;99558.84;223728;184;136884;-64
2023/05/13 21:22:36;;;;;;;15.50;9.80;;;;;;;13.97;51.25;99557.63;223700;185;143615;-61
2023/05/13 21:27:39;;;;;;;17.90;9.20;;;;;;;13.85;51.82;99557.89;223751;184;139021;-60
2023/05/13 21:32:42;;;;;;;18.00;9.10;;;;;;;13.75;52.37;99555.20;223757;184;136506;-61
2023/05/13 21:37:45;;;;;;;14.90;8.80;;;;;;;13.64;52.79;99555.90;223772;184;143945;-61
2023/05/13 21:42:49;;;;;;;13.20;8.80;;;;;;;13.54;53.10;99556.76;223795;183;138350;-61
2023/05/13 21:47:53;;;;;;;14.30;8.70;;;;;;;13.47;53.40;99553.45;223802;185;136926;-62
2023/05/13 21:52:56;;;;;;;13.80;8.50;;;;;;;13.41;53.64;99552.10;223718;184;145838;-63
2023/05/13 21:58:01;;;;;;;14.50;8.80;;;;;;;13.34;53.93;99561.46;223678;184;139195;-61
2023/05/13 22:03:04;;;;;;;12.80;8.80;;;;;;;13.27;54.03;99558.50;223666;184;138503;-66
2023/05/13 22:08:09;;;;;;;17.00;9.40;;;;;;;13.22;54.19;99558.30;223572;184;145196;-66
2023/05/13 22:13:12;;;;;;;13.30;8.40;;;;;;;13.14;54.26;99562.02;223671;184;138434;-65
2023/05/13 22:18:15;;;;;;;13.10;8.80;;;;;;;13.05;54.53;99562.41;223463;184;137236;-63
2023/05/13 22:23:19;;;;;;;13.90;8.70;;;;;;;12.97;54.68;99559.86;223736;184;145009;-67
2023/05/13 22:28:22;;;;;;;14.00;8.50;;;;;;;12.88;54.88;99563.09;223797;184;138409;-66
2023/05/13 22:33:25;;;;;;;11.60;8.00;;;;;;;12.80;55.30;99565.39;223817;184;137533;-65
2023/05/13 22:38:28;;;;;;;13.40;8.40;;;;;;;12.74;55.67;99563.46;223744;184;145248;-67
2023/05/13 22:43:32;;;;;;;13.70;8.30;;;;;;;12.67;55.95;99568.00;223743;184;137073;-65
2023/05/13 22:48:35;;;;;;;14.20;8.30;;;;;;;12.64;55.84;99563.05;223801;183;137529;-68
2023/05/13 22:53:38;;;;;;;11.40;8.30;;;;;;;12.61;56.05;99563.02;223792;184;146113;-65
2023/05/13 22:58:41;;;;;;;10.90;7.40;;;;;;;12.59;56.12;99558.70;223695;184;139006;-66
2023/05/13 23:03:44;;;;;;;10.90;7.50;;;;;;;12.52;56.20;99555.18;222478;183;136687;-67
2023/05/13 23:08:47;;;;;;;14.20;8.40;;;;;;;12.51;56.25;99551.02;223779;184;145248;-67
2023/05/13 23:13:50;;;;;;;13.60;8.10;;;;;;;12.49;56.33;99546.30;223775;184;138659;-67
2023/05/13 23:18:54;;;;;;;11.50;8.10;;;;;;;12.47;56.47;99548.19;223736;184;136789;-62
2023/05/13 23:23:57;;;;;;;12.50;8.10;;;;;;;12.42;56.52;99552.61;223913;181;145700;-63
2023/05/13 23:29:00;;;;;;;13.00;8.00;;;;;;;12.37;56.49;99551.36;223874;181;138414;-67
2023/05/13 23:34:03;;;;;;;12.20;8.00;;;;;;;12.31;56.69;99548.64;223970;181;136754;-66